Halls, Pennsylvania
Current Conditions -  °F | °C
As of 7:54 AM on Thursday 30 Oct 2014 (Local Time) from KIPT Reporting Station
Overcast Overcast  
Wind Chill: 42°   Ceiling: 3600
Heat Index: 46°   Visibility: 10mi
Dew Point: 38°   Wind: 7mph
Humidity: 73%   Direction: 260°W
Pressure: 30.03"   Gusts: NA
Location:  41.225°N, 76.7388°W
Report Text: KIPT 301154Z 26006KT 10SM OVC036 08/03 A3003 RMK AO2 SLP170 70001 T00780033 10078 20039 53015
Loading
Personal Weather Stations






























Interactive Weather Map
Tropical Storm Tracking
New forecast layout! Learn more

10-Day Weather Forecast

Advertisements
Track Severe Weather on mobile